Time;durP1;ratioP1;P1;durP2;ratioP2;P2;SDS_P1;SDS_P2;PMS_P1;PMS_P2;Temp;Humidity;BMP_temperature;BMP_pressure;BME280_temperature;BME280_humidity;BME280_pressure;Samples;Min_cycle;Max_cycle;Signal;HPM_P1;HPM_P2
2022/03/01 00:02:23;;;;;;;27.02;13.15;;;1.00;99.90;;;;;;5136609;27;20101;-59
2022/03/01 00:04:48;;;;;;;28.30;14.00;;;1.00;99.90;;;;;;5141483;27;20023;-59
2022/03/01 00:07:13;;;;;;;30.15;13.32;;;0.90;99.90;;;;;;5148822;27;20029;-59
2022/03/01 00:09:39;;;;;;;29.65;12.38;;;1.00;99.90;;;;;;5149872;27;20062;-59
2022/03/01 00:12:06;;;;;;;28.40;12.75;;;0.90;99.90;;;;;;5135439;27;20097;-58
2022/03/01 00:14:31;;;;;;;23.10;11.55;;;0.80;99.90;;;;;;5143291;27;20027;-58
2022/03/01 00:16:57;;;;;;;27.45;12.45;;;0.80;99.90;;;;;;5149843;27;20415;-59
2022/03/01 00:19:23;;;;;;;25.17;12.75;;;0.80;99.90;;;;;;5149960;27;20023;-59
2022/03/01 00:21:48;;;;;;;25.40;11.70;;;0.70;99.90;;;;;;5148804;27;20033;-58
2022/03/01 00:24:14;;;;;;;23.20;11.88;;;0.70;99.90;;;;;;5150016;27;20030;-59
2022/03/01 00:26:39;;;;;;;27.05;11.18;;;0.60;99.90;;;;;;5149597;27;20337;-59
2022/03/01 00:29:05;;;;;;;25.73;11.57;;;0.60;99.90;;;;;;5150353;27;20030;-59
2022/03/01 00:31:30;;;;;;;28.40;13.05;;;0.50;99.90;;;;;;5148417;27;20026;-60
2022/03/01 00:33:56;;;;;;;26.15;12.10;;;0.50;99.90;;;;;;5149627;27;20033;-59
2022/03/01 00:36:22;;;;;;;27.20;11.60;;;0.40;99.90;;;;;;5149274;27;20343;-58
2022/03/01 00:38:47;;;;;;;30.63;13.65;;;0.40;99.90;;;;;;5129611;27;20493;-59
2022/03/01 00:41:13;;;;;;;27.27;12.55;;;0.40;99.90;;;;;;5141370;27;20026;-58
2022/03/01 00:43:39;;;;;;;28.15;12.73;;;0.30;99.90;;;;;;5139826;27;20012;-59
2022/03/01 00:46:04;;;;;;;27.63;12.50;;;0.30;99.90;;;;;;5136500;27;20065;-59
2022/03/01 00:48:30;;;;;;;27.85;12.68;;;0.20;99.90;;;;;;5149949;27;20192;-59
2022/03/01 00:50:55;;;;;;;28.90;12.05;;;0.20;99.90;;;;;;5124852;27;20110;-60
2022/03/01 00:53:21;;;;;;;26.42;11.43;;;0.20;99.90;;;;;;5135613;27;20506;-60
2022/03/01 00:55:46;;;;;;;24.60;12.63;;;0.20;99.90;;;;;;5135323;27;20487;-60
2022/03/01 00:58:12;;;;;;;27.63;12.52;;;0.20;99.90;;;;;;5139818;27;20440;-60
2022/03/01 01:00:37;;;;;;;27.02;13.02;;;0.10;99.90;;;;;;5137691;27;20484;-59
2022/03/01 01:03:03;;;;;;;30.83;13.68;;;0.10;99.90;;;;;;5137158;27;20026;-59
2022/03/01 01:05:29;;;;;;;29.90;13.68;;;0.00;99.90;;;;;;5149338;27;20071;-59
2022/03/01 01:07:55;;;;;;;26.92;11.90;;;0.00;99.90;;;;;;5133057;27;20027;-59
2022/03/01 01:10:21;;;;;;;33.10;13.80;;;0.00;99.90;;;;;;5140959;27;20450;-62
2022/03/01 01:12:47;;;;;;;29.60;12.63;;;0.00;99.90;;;;;;5137094;27;20114;-58
2022/03/01 01:15:15;;;;;;;37.10;15.07;;;0.00;99.90;;;;;;5130325;27;20023;-60
2022/03/01 01:17:41;;;;;;;34.53;13.93;;;0.00;99.90;;;;;;5122062;27;20019;-60
2022/03/01 01:20:08;;;;;;;29.10;13.35;;;0.00;99.90;;;;;;5134418;27;20045;-60
2022/03/01 01:22:39;;;;;;;27.00;12.75;;;0.10;99.90;;;;;;5117438;27;20031;-60
2022/03/01 01:25:06;;;;;;;26.95;13.25;;;0.00;99.90;;;;;;5119340;27;20109;-61
2022/03/01 01:27:32;;;;;;;31.67;13.70;;;0.10;99.90;;;;;;5121133;27;20034;-61
2022/03/01 01:29:57;;;;;;;30.13;13.80;;;0.10;99.90;;;;;;5118037;27;20027;-60
2022/03/01 01:32:23;;;;;;;29.70;14.50;;;0.00;99.90;;;;;;5117516;28;20020;-61
2022/03/01 01:34:48;;;;;;;24.55;12.13;;;0.00;99.90;;;;;;5117668;28;20019;-60
2022/03/01 01:37:14;;;;;;;31.45;13.07;;;0.00;99.90;;;;;;5118350;27;20068;-60
2022/03/01 01:39:40;;;;;;;31.90;13.88;;;-0.10;99.90;;;;;;5115994;27;20016;-61
2022/03/01 01:42:06;;;;;;;30.02;14.55;;;-0.10;99.90;;;;;;5138387;27;20495;-60
2022/03/01 01:44:32;;;;;;;27.30;13.45;;;-0.10;99.90;;;;;;5148820;27;20407;-61
2022/03/01 01:46:58;;;;;;;27.23;13.18;;;-0.10;99.90;;;;;;5129599;27;20026;-60
2022/03/01 01:49:24;;;;;;;29.58;13.93;;;-0.10;99.90;;;;;;5140263;27;20027;-59
2022/03/01 01:51:49;;;;;;;30.27;14.50;;;-0.20;99.90;;;;;;5148793;27;20354;-59
2022/03/01 01:54:15;;;;;;;36.10;14.35;;;-0.10;99.90;;;;;;5131072;27;20027;-59
2022/03/01 01:56:40;;;;;;;28.08;12.77;;;-0.20;99.90;;;;;;5144101;27;20033;-57
2022/03/01 01:59:06;;;;;;;30.27;13.38;;;-0.20;99.90;;;;;;5148451;27;20022;-57
2022/03/01 02:01:32;;;;;;;31.42;14.00;;;-0.20;99.90;;;;;;5146606;27;20101;-60
2022/03/01 02:03:59;;;;;;;32.35;14.98;;;-0.20;99.90;;;;;;5148314;27;20022;-60
2022/03/01 02:06:25;;;;;;;29.13;13.93;;;-0.20;99.90;;;;;;5148062;27;20036;-60
2022/03/01 02:08:51;;;;;;;26.98;13.13;;;-0.30;99.90;;;;;;5147394;27;20027;-60
2022/03/01 02:11:16;;;;;;;26.65;13.32;;;-0.30;99.90;;;;;;5148327;27;20027;-60
2022/03/01 02:13:42;;;;;;;33.05;14.93;;;-0.30;99.90;;;;;;5148080;27;20019;-60
2022/03/01 02:16:09;;;;;;;32.03;13.88;;;-0.30;99.90;;;;;;5147430;27;20029;-61
2022/03/01 02:18:35;;;;;;;29.30;14.23;;;-0.30;99.90;;;;;;5146877;27;20483;-61
2022/03/01 02:21:01;;;;;;;29.83;13.43;;;-0.40;99.90;;;;;;5147835;27;20030;-61
2022/03/01 02:23:27;;;;;;;30.92;14.10;;;-0.30;99.90;;;;;;5135656;27;20015;-62
2022/03/01 02:25:53;;;;;;;31.27;14.23;;;-0.30;99.90;;;;;;5139289;27;20041;-61
2022/03/01 02:28:18;;;;;;;35.15;14.35;;;-0.40;99.90;;;;;;5146089;27;20025;-61
2022/03/01 02:30:44;;;;;;;33.83;17.58;;;-0.40;99.90;;;;;;5147904;27;20031;-61
2022/03/01 02:33:10;;;;;;;32.05;14.20;;;-0.40;99.90;;;;;;5146560;27;20031;-61
2022/03/01 02:35:35;;;;;;;36.33;14.77;;;-0.50;99.90;;;;;;5140473;27;20027;-61
2022/03/01 02:38:01;;;;;;;33.85;14.65;;;-0.50;99.90;;;;;;5125093;27;20016;-61
2022/03/01 02:40:27;;;;;;;29.20;14.35;;;-0.50;99.90;;;;;;5127196;27;20015;-61
2022/03/01 02:42:52;;;;;;;33.20;15.40;;;-0.50;99.90;;;;;;5135747;27;20026;-61
2022/03/01 02:45:19;;;;;;;29.70;14.63;;;-0.50;99.90;;;;;;5143890;27;20015;-61
2022/03/01 02:47:45;;;;;;;32.40;14.77;;;-0.50;99.90;;;;;;5149408;27;20059;-61
2022/03/01 02:50:11;;;;;;;30.42;14.80;;;-0.60;99.90;;;;;;5150614;27;20030;-62
2022/03/01 02:52:37;;;;;;;35.22;15.48;;;-0.60;99.90;;;;;;5151891;27;20046;-62
2022/03/01 02:55:04;;;;;;;31.80;15.07;;;-0.60;99.90;;;;;;5151703;27;20131;-62
2022/03/01 02:57:29;;;;;;;28.02;14.35;;;-0.60;99.90;;;;;;5151327;27;20030;-62
2022/03/01 02:59:56;;;;;;;37.53;15.43;;;-0.60;99.90;;;;;;5142107;27;20015;-62
2022/03/01 03:02:21;;;;;;;34.97;16.02;;;-0.60;99.90;;;;;;5144803;27;20082;-59
2022/03/01 03:04:47;;;;;;;31.25;15.18;;;-0.60;99.90;;;;;;5150131;27;20105;-57
2022/03/01 03:07:12;;;;;;;31.65;12.63;;;-0.60;99.90;;;;;;5150938;27;20047;-59
2022/03/01 03:09:38;;;;;;;33.15;15.93;;;-0.60;99.90;;;;;;5141693;27;20030;-60
2022/03/01 03:12:05;;;;;;;37.05;17.38;;;-0.60;99.90;;;;;;5150197;27;20026;-59
2022/03/01 03:14:31;;;;;;;27.33;13.60;;;-0.60;99.90;;;;;;5151621;27;20232;-59
2022/03/01 03:16:57;;;;;;;36.03;15.00;;;-0.60;99.90;;;;;;5150586;27;20090;-59
2022/03/01 03:19:23;;;;;;;37.10;17.00;;;-0.60;99.90;;;;;;5151164;27;20029;-59
2022/03/01 03:21:49;;;;;;;36.95;15.98;;;-0.60;99.90;;;;;;5151792;27;20027;-59
2022/03/01 03:24:15;;;;;;;30.13;13.93;;;-0.60;99.90;;;;;;5151375;27;20023;-59
2022/03/01 03:26:41;;;;;;;29.38;14.77;;;-0.60;99.90;;;;;;5150817;27;20051;-59
2022/03/01 03:29:10;;;;;;;37.75;16.30;;;-0.50;99.90;;;;;;5150972;27;20395;-59
2022/03/01 03:31:38;;;;;;;40.45;14.57;;;-0.50;99.90;;;;;;5151735;27;20029;-59
2022/03/01 03:34:05;;;;;;;35.45;14.57;;;-0.60;99.90;;;;;;5151145;27;20062;-60
2022/03/01 03:36:30;;;;;;;33.65;15.20;;;-0.50;99.90;;;;;;5150179;27;20026;-60
2022/03/01 03:38:56;;;;;;;33.67;16.13;;;-0.50;99.90;;;;;;5144092;27;20019;-60
2022/03/01 03:41:22;;;;;;;38.45;15.02;;;-0.60;99.90;;;;;;5142733;27;20055;-60
2022/03/01 03:43:47;;;;;;;34.45;15.32;;;-0.50;99.90;;;;;;5143575;27;20014;-59
2022/03/01 03:46:13;;;;;;;31.85;13.85;;;-0.50;99.90;;;;;;5142252;27;20019;-60
2022/03/01 03:48:39;;;;;;;49.08;21.48;;;-0.40;99.90;;;;;;5148633;27;20015;-60
2022/03/01 03:51:05;;;;;;;35.25;15.45;;;-0.40;99.90;;;;;;5151044;27;20099;-59
2022/03/01 03:53:30;;;;;;;32.00;14.93;;;-0.50;99.90;;;;;;5140864;27;20026;-60
2022/03/01 03:55:56;;;;;;;29.95;14.80;;;-0.50;99.90;;;;;;5141884;27;20026;-60
2022/03/01 03:58:21;;;;;;;33.78;15.23;;;-0.50;99.90;;;;;;5150080;27;20031;-60
2022/03/01 04:00:47;;;;;;;30.75;14.52;;;-0.50;99.90;;;;;;5150547;27;20023;-60
2022/03/01 04:03:12;;;;;;;30.77;14.55;;;-0.50;99.90;;;;;;5149128;27;20062;-60
2022/03/01 04:05:38;;;;;;;32.67;15.15;;;-0.40;99.90;;;;;;5150819;27;20192;-60
2022/03/01 04:08:04;;;;;;;30.60;13.75;;;-0.50;99.90;;;;;;5149899;27;20023;-61
2022/03/01 04:10:29;;;;;;;33.75;16.33;;;-0.50;99.90;;;;;;5143453;27;20070;-61
2022/03/01 04:12:55;;;;;;;30.85;14.57;;;-0.60;99.90;;;;;;5136629;27;20031;-61
2022/03/01 04:15:20;;;;;;;32.50;13.32;;;-0.60;99.90;;;;;;5138926;27;20687;-61
2022/03/01 04:17:46;;;;;;;32.25;14.00;;;-0.60;99.90;;;;;;5111908;27;20034;-60
2022/03/01 04:20:12;;;;;;;31.63;14.07;;;-0.60;99.90;;;;;;5129800;27;20055;-61
2022/03/01 04:22:38;;;;;;;30.40;13.50;;;-0.60;99.90;;;;;;5128502;27;20064;-61
2022/03/01 04:25:06;;;;;;;32.33;15.32;;;-0.60;99.90;;;;;;5129376;27;20024;-61
2022/03/01 04:27:31;;;;;;;34.17;14.65;;;-0.60;99.90;;;;;;5129329;27;20131;-61
2022/03/01 04:29:57;;;;;;;27.35;13.88;;;-0.60;99.90;;;;;;5129531;27;20534;-61
2022/03/01 04:32:24;;;;;;;33.80;13.68;;;-0.70;99.90;;;;;;5123386;27;20128;-61
2022/03/01 04:34:49;;;;;;;27.42;14.40;;;-0.70;99.90;;;;;;5134150;27;20030;-61
2022/03/01 04:37:15;;;;;;;33.65;15.35;;;-0.70;99.90;;;;;;5149246;27;20196;-61
2022/03/01 04:39:40;;;;;;;29.92;13.23;;;-0.60;99.90;;;;;;5131340;27;20031;-61
2022/03/01 04:42:06;;;;;;;31.65;14.13;;;-0.70;99.90;;;;;;5123564;27;20083;-61
2022/03/01 04:44:35;;;;;;;29.30;13.65;;;-0.60;99.90;;;;;;5121414;27;20015;-61
2022/03/01 04:47:02;;;;;;;30.55;14.60;;;-0.70;99.90;;;;;;5129081;27;20106;-61
2022/03/01 04:49:28;;;;;;;29.10;13.35;;;-0.70;99.90;;;;;;5141096;27;20053;-61
2022/03/01 04:51:55;;;;;;;33.67;14.77;;;-0.70;99.90;;;;;;5149901;27;20033;-61
2022/03/01 04:54:20;;;;;;;30.42;14.02;;;-0.70;99.90;;;;;;5138281;27;20109;-61
2022/03/01 04:56:46;;;;;;;30.92;13.77;;;-0.70;99.90;;;;;;5143843;27;20130;-61
2022/03/01 04:59:11;;;;;;;30.60;12.98;;;-0.80;99.90;;;;;;5133866;27;20027;-61
2022/03/01 05:01:37;;;;;;;26.00;13.52;;;-0.80;99.90;;;;;;5133636;27;20102;-61
2022/03/01 05:04:03;;;;;;;32.00;15.02;;;-0.80;99.90;;;;;;5128897;27;20015;-61
2022/03/01 05:06:30;;;;;;;24.55;13.25;;;-0.80;99.90;;;;;;5140622;27;20034;-61
2022/03/01 05:08:55;;;;;;;32.00;13.48;;;-0.80;99.90;;;;;;5140090;27;20314;-60
2022/03/01 05:11:21;;;;;;;33.97;14.50;;;-0.80;99.90;;;;;;5126224;27;20027;-60
2022/03/01 05:13:47;;;;;;;25.05;13.55;;;-0.90;99.90;;;;;;5118047;27;20117;-57
2022/03/01 05:16:13;;;;;;;27.83;13.63;;;-0.90;99.90;;;;;;5122918;27;20038;-59
2022/03/01 05:18:39;;;;;;;33.92;13.82;;;-0.90;99.90;;;;;;5104178;28;20077;-58
2022/03/01 05:21:05;;;;;;;30.13;15.05;;;-0.90;99.90;;;;;;5106994;28;20028;-58
2022/03/01 05:23:30;;;;;;;34.55;15.75;;;-0.90;99.90;;;;;;5105333;28;20446;-59
2022/03/01 05:25:56;;;;;;;32.20;15.05;;;-0.90;99.90;;;;;;5134174;27;20031;-59
2022/03/01 05:28:21;;;;;;;30.17;14.88;;;-0.90;99.90;;;;;;5147222;27;20105;-59
2022/03/01 05:30:47;;;;;;;35.60;14.48;;;-0.90;99.90;;;;;;5148356;27;20086;-59
2022/03/01 05:33:12;;;;;;;30.88;13.80;;;-0.90;99.90;;;;;;5148051;27;20102;-59
2022/03/01 05:35:38;;;;;;;31.25;14.10;;;-1.00;99.90;;;;;;5148411;27;20037;-59
2022/03/01 05:38:03;;;;;;;28.67;13.07;;;-1.00;99.90;;;;;;5148109;27;20094;-59
2022/03/01 05:40:31;;;;;;;29.45;14.40;;;-1.00;99.90;;;;;;5148317;27;20743;-59
2022/03/01 05:42:57;;;;;;;29.83;14.40;;;-1.00;99.90;;;;;;5148322;27;20083;-59
2022/03/01 05:45:25;;;;;;;29.92;12.98;;;-1.00;99.90;;;;;;5146764;27;20494;-59
2022/03/01 05:47:51;;;;;;;25.13;13.10;;;-1.00;99.90;;;;;;5147678;27;20562;-59
2022/03/01 05:50:19;;;;;;;36.50;15.27;;;-1.00;99.90;;;;;;5147811;27;20062;-59
2022/03/01 05:52:45;;;;;;;34.17;15.25;;;-1.00;99.90;;;;;;5124697;27;20024;-59
2022/03/01 05:55:11;;;;;;;31.00;14.98;;;-1.00;99.90;;;;;;5119692;27;20034;-59
2022/03/01 05:57:37;;;;;;;30.35;14.98;;;-1.00;99.90;;;;;;5118789;27;20498;-59
2022/03/01 06:00:08;;;;;;;33.45;15.20;;;-1.00;99.90;;;;;;5126255;27;20027;-59
2022/03/01 06:02:34;;;;;;;29.90;13.45;;;-1.10;99.90;;;;;;5109085;28;20372;-59
2022/03/01 06:04:59;;;;;;;30.90;14.07;;;-1.00;99.90;;;;;;5135394;27;20264;-58
2022/03/01 06:07:25;;;;;;;29.83;14.43;;;-1.00;99.90;;;;;;5127303;27;20031;-58
2022/03/01 06:09:50;;;;;;;34.50;13.73;;;-1.00;99.90;;;;;;5126826;27;20052;-58
2022/03/01 06:12:16;;;;;;;29.75;13.43;;;-1.10;99.90;;;;;;5147411;27;20022;-58
2022/03/01 06:14:42;;;;;;;26.75;13.43;;;-1.10;99.90;;;;;;5126469;27;20023;-58
2022/03/01 06:17:08;;;;;;;28.85;13.98;;;-1.00;99.90;;;;;;5125258;27;20043;-58
2022/03/01 06:19:33;;;;;;;31.35;14.77;;;-1.10;99.90;;;;;;5136201;27;20023;-58
2022/03/01 06:21:59;;;;;;;33.28;14.68;;;-1.10;99.90;;;;;;5124063;27;20043;-58
2022/03/01 06:24:25;;;;;;;33.28;14.52;;;-1.10;99.90;;;;;;5136842;27;20026;-58
2022/03/01 06:26:50;;;;;;;30.17;15.00;;;-1.00;99.90;;;;;;5127688;27;20115;-58
2022/03/01 06:29:16;;;;;;;31.77;14.73;;;-1.00;99.90;;;;;;5126955;27;20035;-59
2022/03/01 06:31:41;;;;;;;29.05;13.65;;;-1.00;99.90;;;;;;5119872;27;20027;-58
2022/03/01 06:34:07;;;;;;;34.08;15.35;;;-1.00;99.90;;;;;;5113315;27;20092;-58
2022/03/01 06:36:33;;;;;;;37.28;17.42;;;-1.00;99.90;;;;;;5109936;27;20027;-58
2022/03/01 06:38:58;;;;;;;33.13;14.18;;;-1.00;99.90;;;;;;5109066;28;20015;-58
2022/03/01 06:41:24;;;;;;;29.90;13.40;;;-1.00;99.90;;;;;;5117601;27;20052;-58
2022/03/01 06:43:50;;;;;;;31.20;13.50;;;-1.00;99.90;;;;;;5110341;28;20016;-58
2022/03/01 06:46:15;;;;;;;28.35;14.25;;;-0.90;99.90;;;;;;5110204;28;20118;-58
2022/03/01 06:48:41;;;;;;;28.67;13.77;;;-0.90;99.90;;;;;;5132698;27;20457;-59
2022/03/01 06:51:09;;;;;;;31.13;14.27;;;-0.90;99.90;;;;;;5111744;27;20450;-57
2022/03/01 06:53:36;;;;;;;26.75;13.98;;;-0.90;99.90;;;;;;5114987;27;20492;-57
2022/03/01 06:56:02;;;;;;;31.75;14.70;;;-0.90;99.90;;;;;;5132570;27;20026;-57
2022/03/01 06:58:28;;;;;;;30.98;14.93;;;-0.90;99.90;;;;;;5124909;27;20024;-57
2022/03/01 07:00:56;;;;;;;28.63;14.43;;;-0.80;99.90;;;;;;5137394;27;20494;-58
2022/03/01 07:03:21;;;;;;;33.28;15.48;;;-0.70;99.90;;;;;;5150596;27;20026;-58
2022/03/01 07:05:47;;;;;;;28.55;14.30;;;-0.70;99.90;;;;;;5143520;27;20372;-58
2022/03/01 07:08:13;;;;;;;30.95;15.07;;;-0.70;99.90;;;;;;5134832;27;20034;-57
2022/03/01 07:10:41;;;;;;;28.63;14.07;;;-0.60;99.90;;;;;;5140616;27;20027;-58
2022/03/01 07:13:07;;;;;;;31.52;13.88;;;-0.60;99.90;;;;;;5132351;27;20023;-58
2022/03/01 07:15:34;;;;;;;28.85;14.10;;;-0.50;99.90;;;;;;5138488;27;20023;-58
2022/03/01 07:18:01;;;;;;;33.30;14.70;;;-0.50;99.90;;;;;;5123569;27;20109;-58
2022/03/01 07:20:26;;;;;;;36.45;15.25;;;-0.50;99.90;;;;;;5135083;27;20015;-58
2022/03/01 07:22:52;;;;;;;28.95;14.13;;;-0.40;99.90;;;;;;5147697;27;20102;-58
2022/03/01 07:25:17;;;;;;;30.30;13.98;;;-0.30;99.90;;;;;;5133328;27;20444;-58
2022/03/01 07:27:49;;;;;;;30.65;13.93;;;-0.20;99.90;;;;;;5131103;27;20030;-58
2022/03/01 07:30:15;;;;;;;24.83;13.02;;;-0.20;99.90;;;;;;5126310;27;20502;-59
2022/03/01 07:32:41;;;;;;;37.30;13.70;;;-0.10;99.90;;;;;;5134005;27;20031;-59
2022/03/01 07:35:07;;;;;;;27.70;12.10;;;0.10;99.90;;;;;;5120160;27;20038;-59
2022/03/01 07:37:34;;;;;;;30.27;13.65;;;0.10;99.90;;;;;;5119459;27;20579;-58
2022/03/01 07:40:01;;;;;;;28.40;14.02;;;0.10;99.90;;;;;;5121441;27;20488;-58
2022/03/01 07:42:26;;;;;;;24.67;13.40;;;0.10;99.90;;;;;;5120464;27;20026;-58
2022/03/01 07:44:52;;;;;;;28.85;14.38;;;0.20;99.90;;;;;;5117520;27;20015;-57
2022/03/01 07:47:18;;;;;;;27.88;13.98;;;0.20;99.90;;;;;;5117688;27;20024;-58
2022/03/01 07:49:44;;;;;;;28.75;13.40;;;0.30;99.90;;;;;;5116491;27;20130;-59
2022/03/01 07:52:10;;;;;;;34.20;13.63;;;0.40;99.90;;;;;;5141891;27;20638;-59
2022/03/01 07:54:35;;;;;;;24.67;13.23;;;0.50;99.90;;;;;;5114251;27;20180;-57
2022/03/01 07:57:01;;;;;;;26.70;13.48;;;0.50;99.90;;;;;;5116090;27;20121;-58
2022/03/01 07:59:27;;;;;;;31.63;14.05;;;0.70;99.90;;;;;;5128155;27;20119;-58
2022/03/01 08:01:52;;;;;;;30.77;13.20;;;0.70;99.90;;;;;;5140423;27;20171;-58
2022/03/01 08:04:19;;;;;;;30.95;13.68;;;0.80;99.90;;;;;;5121192;27;20433;-58
2022/03/01 08:06:45;;;;;;;27.60;14.68;;;0.80;99.90;;;;;;5117036;27;20055;-58
2022/03/01 08:09:10;;;;;;;29.88;13.32;;;0.90;99.90;;;;;;5123875;27;20043;-58
2022/03/01 08:11:36;;;;;;;26.73;13.63;;;0.90;99.90;;;;;;5132266;27;20023;-58
2022/03/01 08:14:01;;;;;;;26.13;13.02;;;0.90;99.90;;;;;;5148790;27;20058;-58
2022/03/01 08:16:27;;;;;;;25.35;13.15;;;1.10;99.90;;;;;;5146442;27;20503;-58
2022/03/01 08:18:52;;;;;;;26.95;12.70;;;1.20;99.90;;;;;;5125379;27;20277;-58
2022/03/01 08:21:18;;;;;;;28.45;13.85;;;1.30;99.90;;;;;;5130703;27;20034;-59
2022/03/01 08:23:44;;;;;;;25.50;12.75;;;1.30;99.90;;;;;;5149666;27;20041;-57
2022/03/01 08:26:09;;;;;;;27.15;12.82;;;1.40;99.90;;;;;;5111694;27;20023;-58
2022/03/01 08:28:35;;;;;;;27.75;12.25;;;1.50;99.90;;;;;;5130299;27;20030;-58
2022/03/01 08:31:01;;;;;;;25.00;12.27;;;1.60;99.90;;;;;;5136356;27;20030;-59
2022/03/01 08:33:26;;;;;;;24.73;13.40;;;1.70;99.90;;;;;;5119496;27;20035;-59
2022/03/01 08:35:55;;;;;;;28.48;12.60;;;1.70;99.90;;;;;;5120575;27;20123;-59
2022/03/01 08:38:21;;;;;;;31.48;13.77;;;1.90;99.90;;;;;;5120639;27;20082;-59
2022/03/01 08:40:47;;;;;;;25.55;13.40;;;2.00;99.90;;;;;;5117805;27;20393;-59
2022/03/01 08:43:13;;;;;;;25.90;13.40;;;2.10;99.90;;;;;;5115093;27;20034;-59
2022/03/01 08:45:40;;;;;;;28.88;12.93;;;2.20;99.90;;;;;;5117507;27;20071;-58
2022/03/01 08:48:06;;;;;;;25.98;12.50;;;2.30;99.90;;;;;;5115906;27;20388;-59
2022/03/01 08:50:33;;;;;;;23.90;12.95;;;2.40;99.90;;;;;;5121062;27;20020;-59
2022/03/01 08:52:59;;;;;;;27.83;13.52;;;2.50;99.90;;;;;;5114438;27;20035;-58
2022/03/01 08:55:24;;;;;;;27.50;12.13;;;2.60;99.90;;;;;;5119890;27;20170;-59
2022/03/01 08:57:50;;;;;;;23.25;12.82;;;2.80;99.90;;;;;;5110398;27;20519;-59
2022/03/01 09:00:16;;;;;;;25.40;12.32;;;2.80;99.90;;;;;;5117945;27;20047;-59
2022/03/01 09:02:42;;;;;;;25.13;12.90;;;2.90;99.90;;;;;;5122068;27;20023;-59
2022/03/01 09:05:08;;;;;;;22.30;12.00;;;3.20;99.90;;;;;;5133279;27;20023;-57
2022/03/01 09:07:35;;;;;;;23.25;12.98;;;3.30;99.90;;;;;;5126093;27;20471;-56
2022/03/01 09:10:02;;;;;;;27.20;13.60;;;3.50;99.90;;;;;;5127285;27;20027;-57
2022/03/01 09:12:27;;;;;;;27.02;13.82;;;3.70;99.90;;;;;;5133413;27;20413;-57
2022/03/01 09:14:53;;;;;;;26.35;12.90;;;4.20;99.00;;;;;;5132050;27;20037;-57
2022/03/01 09:17:19;;;;;;;20.83;12.30;;;5.60;97.80;;;;;;5135206;27;20066;-57
2022/03/01 09:19:45;;;;;;;19.90;11.63;;;7.40;90.10;;;;;;5141870;27;20495;-58
2022/03/01 09:22:11;;;;;;;18.98;11.93;;;9.70;82.40;;;;;;5132821;27;20051;-57
2022/03/01 09:24:37;;;;;;;19.35;11.68;;;11.40;69.10;;;;;;5143688;27;20050;-58
2022/03/01 09:27:02;;;;;;;20.08;11.60;;;13.20;60.70;;;;;;5146230;27;20019;-58
2022/03/01 09:29:30;;;;;;;16.55;10.18;;;14.20;53.40;;;;;;5129934;27;20137;-58
2022/03/01 09:31:56;;;;;;;15.40;11.27;;;15.30;51.40;;;;;;5137350;27;20030;-58
2022/03/01 09:34:21;;;;;;;16.42;11.48;;;15.30;50.30;;;;;;5120371;28;20487;-58
2022/03/01 09:36:47;;;;;;;15.95;11.45;;;16.50;49.10;;;;;;5132331;27;20028;-58
2022/03/01 09:39:12;;;;;;;15.98;11.13;;;16.70;44.90;;;;;;5127152;27;20021;-58
2022/03/01 09:41:39;;;;;;;16.30;11.07;;;17.20;46.00;;;;;;5127877;27;20020;-58
2022/03/01 09:44:05;;;;;;;13.18;10.20;;;18.60;41.70;;;;;;5133274;27;20229;-58
2022/03/01 09:46:31;;;;;;;13.18;10.40;;;18.60;41.20;;;;;;5131648;27;20027;-58
2022/03/01 09:48:57;;;;;;;27.77;20.63;;;19.20;41.00;;;;;;5139591;27;20035;-58
2022/03/01 09:51:24;;;;;;;14.60;11.20;;;19.20;39.60;;;;;;5115799;27;20031;-58
2022/03/01 09:53:51;;;;;;;14.23;10.57;;;19.30;37.00;;;;;;5117165;27;20024;-58
2022/03/01 09:56:18;;;;;;;13.50;10.05;;;19.50;39.00;;;;;;5143446;27;20015;-58
2022/03/01 09:58:45;;;;;;;12.48;9.75;;;20.80;35.10;;;;;;5147485;27;20044;-59
2022/03/01 10:01:11;;;;;;;14.15;10.57;;;19.80;36.90;;;;;;5122764;27;20105;-58
2022/03/01 10:03:38;;;;;;;14.00;10.48;;;20.10;36.50;;;;;;5142213;27;20122;-59
2022/03/01 10:06:12;;;;;;;13.68;10.93;;;19.10;36.70;;;;;;5141733;27;20475;-58
2022/03/01 10:08:38;;;;;;;16.67;11.32;;;20.20;35.60;;;;;;5137427;27;20031;-58
2022/03/01 10:11:04;;;;;;;14.68;10.98;;;19.30;36.10;;;;;;5124571;27;20040;-58
2022/03/01 10:13:32;;;;;;;14.13;10.98;;;18.40;35.80;;;;;;5141520;27;20033;-58
2022/03/01 10:16:09;;;;;;;13.57;10.27;;;16.00;39.40;;;;;;5118505;27;20016;-58
2022/03/01 10:18:41;;;;;;;16.25;11.27;;;17.10;39.60;;;;;;5131830;27;20035;-58
2022/03/01 10:21:13;;;;;;;14.23;10.57;;;17.70;38.20;;;;;;5130943;27;20477;-57
2022/03/01 10:23:45;;;;;;;17.20;10.73;;;17.30;37.60;;;;;;5132444;27;20012;-58
2022/03/01 10:26:23;;;;;;;15.95;11.00;;;17.60;37.00;;;;;;5141933;27;20552;-57
2022/03/01 10:28:50;;;;;;;15.13;9.95;;;18.00;35.60;;;;;;5130587;27;20033;-58
2022/03/01 10:31:18;;;;;;;15.63;11.20;;;17.30;38.30;;;;;;5127649;27;20027;-57
2022/03/01 10:34:10;;;;;;;17.63;11.10;;;18.40;36.70;;;;;;5130222;27;20420;-58
2022/03/01 10:36:47;;;;;;;15.70;10.88;;;20.00;35.50;;;;;;5130759;27;20049;-57
2022/03/01 10:39:21;;;;;;;14.80;12.02;;;21.60;32.40;;;;;;5125991;27;20027;-57
2022/03/01 10:41:48;;;;;;;17.67;11.23;;;19.90;33.60;;;;;;5115766;27;20019;-58
2022/03/01 10:44:16;;;;;;;13.70;9.75;;;18.30;35.30;;;;;;5129976;27;20023;-58
2022/03/01 10:46:48;;;;;;;16.48;11.15;;;17.30;38.20;;;;;;5146694;27;20026;-58
2022/03/01 10:49:16;;;;;;;13.45;10.52;;;18.30;37.10;;;;;;5138764;27;20031;-57
2022/03/01 10:51:57;;;;;;;19.58;11.13;;;18.50;36.80;;;;;;5119991;27;20241;-57
2022/03/01 10:54:31;;;;;;;15.40;10.32;;;20.60;34.60;;;;;;5130342;27;20397;-56
2022/03/01 10:56:59;;;;;;;13.23;9.95;;;19.90;34.20;;;;;;5122235;27;20053;-56
2022/03/01 10:59:31;;;;;;;19.75;10.93;;;21.00;35.10;;;;;;5110126;27;20046;-57
2022/03/01 11:01:57;;;;;;;13.50;9.85;;;21.30;31.90;;;;;;5116453;27;20023;-57
2022/03/01 11:04:25;;;;;;;13.43;9.80;;;19.20;35.50;;;;;;5116793;27;20022;-57
2022/03/01 11:06:55;;;;;;;13.98;10.60;;;20.20;36.50;;;;;;5110941;27;20028;-57
2022/03/01 11:09:24;;;;;;;15.45;10.10;;;20.40;35.80;;;;;;5120254;27;20091;-56
2022/03/01 11:11:51;;;;;;;15.18;10.52;;;20.30;35.10;;;;;;5113478;27;20036;-56
2022/03/01 11:14:24;;;;;;;12.95;10.00;;;19.30;33.60;;;;;;5143064;27;20079;-57
2022/03/01 11:17:33;;;;;;;14.70;10.05;;;19.80;34.40;;;;;;5133436;27;20020;-57
2022/03/01 11:20:22;;;;;;;14.35;10.65;;;19.70;34.70;;;;;;5126514;27;20034;-56
2022/03/01 11:22:58;;;;;;;18.13;11.48;;;20.50;33.70;;;;;;5125093;27;20027;-57
2022/03/01 11:25:27;;;;;;;16.35;11.82;;;18.60;36.10;;;;;;5122680;27;20067;-56
2022/03/01 11:28:00;;;;;;;15.20;10.60;;;17.60;37.40;;;;;;5127927;27;20577;-56
2022/03/01 11:30:31;;;;;;;14.27;10.20;;;17.90;38.50;;;;;;5120766;27;20062;-56
2022/03/01 11:32:58;;;;;;;16.88;11.85;;;17.80;37.60;;;;;;5127564;27;20023;-56
2022/03/01 11:35:26;;;;;;;14.35;10.43;;;16.50;38.30;;;;;;5129815;27;20398;-57
2022/03/01 11:38:01;;;;;;;14.88;11.10;;;16.10;38.80;;;;;;5138321;27;20253;-57
2022/03/01 11:40:30;;;;;;;20.58;11.20;;;15.50;37.80;;;;;;5125757;27;20498;-57
2022/03/01 11:43:13;;;;;;;13.87;10.37;;;16.10;39.50;;;;;;5136336;27;20088;-57
2022/03/01 11:45:44;;;;;;;15.93;10.93;;;14.70;40.90;;;;;;5130075;27;20019;-57
2022/03/01 11:48:14;;;;;;;;;;;14.60;42.90;;;;;;5132884;27;20027;-57
2022/03/01 11:50:57;;;;;;;15.73;11.07;;;14.10;40.60;;;;;;5131465;27;20137;-57
2022/03/01 11:53:25;;;;;;;16.77;10.73;;;13.90;42.00;;;;;;5127909;27;20483;-57
2022/03/01 11:55:57;;;;;;;15.20;10.65;;;15.00;40.00;;;;;;5126702;27;20081;-57
2022/03/01 11:58:24;;;;;;;18.45;10.75;;;15.00;41.50;;;;;;5108843;28;20472;-57
2022/03/01 12:00:50;;;;;;;18.48;11.00;;;14.80;42.60;;;;;;5118704;27;20253;-57
2022/03/01 12:03:25;;;;;;;16.63;10.30;;;14.80;42.10;;;;;;5128345;27;20594;-57
2022/03/01 12:05:51;;;;;;;15.88;10.43;;;14.50;42.30;;;;;;5134800;27;20418;-56
2022/03/01 12:08:18;;;;;;;17.05;10.80;;;15.00;41.30;;;;;;5149414;27;20416;-57
2022/03/01 12:10:54;;;;;;;16.08;10.70;;;14.90;40.40;;;;;;5125318;27;20053;-57
2022/03/01 12:13:20;;;;;;;16.45;10.63;;;14.60;42.20;;;;;;5135304;27;20472;-57
2022/03/01 12:15:56;;;;;;;15.38;10.00;;;15.10;41.00;;;;;;5123661;27;20110;-56
2022/03/01 12:18:27;;;;;;;14.52;10.73;;;15.00;40.50;;;;;;5118756;27;20437;-57
2022/03/01 12:20:59;;;;;;;14.88;10.75;;;15.70;40.60;;;;;;5126581;27;20508;-57
2022/03/01 12:23:27;;;;;;;21.08;12.13;;;15.90;39.70;;;;;;5120199;27;20019;-57
2022/03/01 12:25:53;;;;;;;18.60;10.82;;;15.60;39.50;;;;;;5141268;27;20471;-57
2022/03/01 12:28:20;;;;;;;15.65;10.90;;;16.10;39.10;;;;;;5129239;27;20037;-56
2022/03/01 12:30:46;;;;;;;18.25;11.13;;;16.90;38.70;;;;;;5114956;27;20035;-57